Time;durP1;ratioP1;P1;durP2;ratioP2;P2;SDS_P1;SDS_P2;PMS_P1;PMS_P2;Temp;Humidity;BMP_temperature;BMP_pressure;BME280_temperature;BME280_humidity;BME280_pressure;Samples;Min_cycle;Max_cycle;Signal;HPM_P1;HPM_P2
2022/01/12 00:02:18;;;;;;;12.00;6.20;;;1.60;95.10;;;;;;5066653;28;20174;-75
2022/01/12 00:04:43;;;;;;;13.57;6.30;;;1.50;95.10;;;;;;5046515;28;20424;-74
2022/01/12 00:07:09;;;;;;;13.20;6.07;;;1.50;95.00;;;;;;5058136;28;20438;-74
2022/01/12 00:09:35;;;;;;;15.07;6.27;;;1.60;95.00;;;;;;5059742;28;20165;-74
2022/01/12 00:12:01;;;;;;;14.70;7.20;;;1.50;94.70;;;;;;5043354;28;20692;-75
2022/01/12 00:14:27;;;;;;;13.00;7.13;;;1.50;94.80;;;;;;5050519;28;20181;-74
2022/01/12 00:16:58;;;;;;;10.43;6.60;;;1.50;94.80;;;;;;5050526;28;20236;-74
2022/01/12 00:19:25;;;;;;;10.73;6.73;;;1.50;94.70;;;;;;5064780;28;20468;-77
2022/01/12 00:21:51;;;;;;;14.10;6.07;;;1.50;94.70;;;;;;5035046;28;20424;-76
2022/01/12 00:24:17;;;;;;;10.77;6.37;;;1.50;94.60;;;;;;5052728;28;20451;-75
2022/01/12 00:33:08;;;;;;;13.13;7.70;;;1.50;94.70;;;;;;5052492;28;20286;-76
2022/01/12 00:34:58;;;;;;;13.27;7.07;;;1.50;94.90;;;;;;5052574;28;20404;-75
2022/01/12 00:37:23;;;;;;;11.00;6.83;;;1.50;94.90;;;;;;5034222;28;20985;-75
2022/01/12 00:39:49;;;;;;;16.57;7.30;;;1.50;94.80;;;;;;5034564;28;20421;-76
2022/01/12 00:42:15;;;;;;;14.50;6.67;;;1.50;94.70;;;;;;5034443;28;20174;-75
2022/01/12 00:44:45;;;;;;;14.20;7.20;;;1.40;94.60;;;;;;5034576;28;20170;-75
2022/01/12 00:47:11;;;;;;;12.10;6.97;;;1.40;94.60;;;;;;5034274;28;20196;-76
2022/01/12 00:49:37;;;;;;;11.50;6.80;;;1.40;94.80;;;;;;5034489;28;20583;-76
2022/01/12 00:52:03;;;;;;;13.60;6.93;;;1.40;94.80;;;;;;5034248;28;20520;-75
2022/01/12 00:54:28;;;;;;;12.07;6.77;;;1.30;94.80;;;;;;5053762;28;20220;-76
2022/01/12 00:56:54;;;;;;;16.10;6.23;;;1.30;94.80;;;;;;5052566;28;20431;-77
2022/01/12 00:59:20;;;;;;;19.10;8.70;;;1.30;94.80;;;;;;5036196;28;20204;-75
2022/01/12 01:01:46;;;;;;;17.83;6.93;;;1.20;94.80;;;;;;5055184;28;20182;-76
2022/01/12 01:04:11;;;;;;;12.60;8.10;;;1.20;94.90;;;;;;5035970;28;20685;-77
2022/01/12 01:06:38;;;;;;;14.80;7.40;;;1.10;94.90;;;;;;5034781;28;20182;-74
2022/01/12 01:09:05;;;;;;;15.40;7.93;;;1.10;95.00;;;;;;5034849;28;20402;-75
2022/01/12 01:11:33;;;;;;;11.60;5.70;;;1.00;95.10;;;;;;5038225;28;20431;-74
2022/01/12 01:14:11;;;;;;;17.73;7.70;;;1.00;95.20;;;;;;5018623;28;20807;-75
2022/01/12 01:27:25;;;;;;;12.07;6.67;;;0.80;95.90;;;;;;5050636;28;20428;-75
2022/01/12 01:29:53;;;;;;;9.87;6.80;;;0.80;95.90;;;;;;5050614;28;20798;-76
2022/01/12 01:32:19;;;;;;;11.57;6.03;;;0.80;96.00;;;;;;5034099;28;20404;-76
2022/01/12 01:34:47;;;;;;;12.80;6.60;;;0.80;96.00;;;;;;5034353;28;20458;-74
2022/01/12 01:37:16;;;;;;;12.83;6.83;;;0.80;96.00;;;;;;5050543;28;20464;-74
2022/01/12 01:39:43;;;;;;;9.60;5.70;;;0.80;96.10;;;;;;5017699;28;20956;-76
2022/01/12 01:42:20;;;;;;;13.43;6.87;;;0.70;96.10;;;;;;5033731;28;20857;-76
2022/01/12 01:55:32;;;;;;;14.03;6.80;;;1.00;96.20;;;;;;5059002;28;20468;-75
2022/01/12 01:57:58;;;;;;;13.40;5.83;;;1.00;96.00;;;;;;5044168;28;20416;-74
2022/01/12 02:00:26;;;;;;;13.77;6.97;;;1.10;95.90;;;;;;5059566;28;20990;-75
2022/01/12 02:02:57;;;;;;;13.97;6.77;;;1.10;95.70;;;;;;5034875;28;20539;-76
2022/01/12 02:05:34;;;;;;;9.77;6.30;;;1.10;95.70;;;;;;5033325;28;20404;-75
2022/01/12 02:08:02;;;;;;;9.07;5.20;;;1.10;95.70;;;;;;5051574;28;20396;-74
2022/01/12 02:10:33;;;;;;;10.43;6.80;;;1.10;95.70;;;;;;5033807;28;20424;-73
2022/01/12 02:12:59;;;;;;;10.53;5.80;;;1.10;95.50;;;;;;5033476;28;20458;-75
2022/01/12 02:15:26;;;;;;;10.27;6.37;;;1.10;95.40;;;;;;5033359;28;20836;-76
2022/01/12 02:18:07;;;;;;;13.90;8.10;;;1.20;95.50;;;;;;5053770;28;20191;-76
2022/01/12 02:40:26;;;;;;;12.80;6.17;;;1.60;94.80;;;;;;5055144;28;20442;-74
2022/01/12 02:43:15;;;;;;;13.63;6.37;;;1.60;95.00;;;;;;5054807;28;20483;-75
2022/01/12 02:53:41;;;;;;;12.53;6.27;;;1.50;94.70;;;;;;5054871;28;20423;-77
2022/01/12 02:56:23;;;;;;;13.70;6.87;;;1.50;94.60;;;;;;5036790;28;20501;-74
2022/01/12 02:58:50;;;;;;;9.57;6.00;;;1.50;94.60;;;;;;5036868;28;20988;-75
2022/01/12 03:03:50;;;;;;;11.97;6.93;;;1.40;94.80;;;;;;5054181;28;20968;-74
2022/01/12 03:06:22;;;;;;;9.50;6.23;;;1.40;94.70;;;;;;5036397;28;20482;-75
2022/01/12 03:08:50;;;;;;;10.80;5.80;;;1.40;94.70;;;;;;5036621;28;20439;-75
2022/01/12 03:11:18;;;;;;;13.53;7.13;;;1.40;94.90;;;;;;5035924;28;20404;-75
2022/01/12 03:13:49;;;;;;;11.10;6.97;;;1.40;94.90;;;;;;5036353;28;20420;-76
2022/01/12 03:16:18;;;;;;;8.67;5.90;;;1.30;94.90;;;;;;5035628;28;20432;-76
2022/01/12 03:18:49;;;;;;;12.17;6.73;;;1.30;95.00;;;;;;5035893;28;20445;-74
2022/01/12 03:21:18;;;;;;;13.40;6.77;;;1.30;94.90;;;;;;5035708;28;20427;-75
2022/01/12 03:23:44;;;;;;;11.77;7.10;;;1.30;95.10;;;;;;5035371;28;20484;-76
2022/01/12 03:26:10;;;;;;;11.97;6.60;;;1.30;95.10;;;;;;5052367;28;20432;-75
2022/01/12 03:28:38;;;;;;;12.30;6.50;;;1.30;95.20;;;;;;5035759;28;20439;-75
2022/01/12 03:36:23;;;;;;;11.73;6.50;;;1.30;95.40;;;;;;5034342;28;20448;-76
2022/01/12 03:38:48;;;;;;;10.73;6.13;;;1.30;95.50;;;;;;5036102;28;20423;-73
2022/01/12 03:41:14;;;;;;;15.17;7.50;;;1.20;95.50;;;;;;5035673;28;20428;-75
2022/01/12 03:43:40;;;;;;;10.93;6.10;;;1.20;95.40;;;;;;5035379;28;20467;-76
2022/01/12 03:46:06;;;;;;;11.10;6.30;;;1.20;95.40;;;;;;5034745;28;20413;-76
2022/01/12 03:48:32;;;;;;;12.27;6.90;;;1.10;95.50;;;;;;5035101;28;20178;-76
2022/01/12 03:50:57;;;;;;;12.70;7.00;;;1.10;95.60;;;;;;5035498;28;20828;-76
2022/01/12 03:53:24;;;;;;;12.10;6.17;;;1.10;95.50;;;;;;5053531;28;20256;-75
2022/01/12 03:55:50;;;;;;;9.67;5.40;;;1.10;95.50;;;;;;5035212;28;20573;-76
2022/01/12 03:58:16;;;;;;;11.70;7.63;;;1.10;95.50;;;;;;5053071;28;20400;-75
2022/01/12 04:00:41;;;;;;;13.80;7.07;;;1.10;95.50;;;;;;5035696;28;20507;-76
2022/01/12 04:03:08;;;;;;;13.10;6.50;;;1.20;95.50;;;;;;5035779;28;20255;-76
2022/01/12 04:08:21;;;;;;;12.17;6.37;;;1.20;95.80;;;;;;5052727;28;20412;-76
2022/01/12 04:10:55;;;;;;;11.40;6.77;;;1.20;95.40;;;;;;5036688;28;20422;-76
2022/01/12 04:13:23;;;;;;;15.53;6.83;;;1.20;95.40;;;;;;5036620;28;20413;-76
2022/01/12 04:15:54;;;;;;;11.10;6.40;;;1.30;95.50;;;;;;5034743;28;20828;-76
2022/01/12 04:18:20;;;;;;;11.00;5.70;;;1.30;95.30;;;;;;5034502;28;20408;-76
2022/01/12 04:20:48;;;;;;;10.83;5.90;;;1.30;95.20;;;;;;5034314;28;20434;-76
2022/01/12 04:23:18;;;;;;;11.13;6.17;;;1.40;95.30;;;;;;5034695;28;20646;-76
2022/01/12 04:25:58;;;;;;;13.60;6.00;;;1.40;95.20;;;;;;5052300;28;20500;-76
2022/01/12 04:28:27;;;;;;;10.93;6.20;;;1.40;95.10;;;;;;5051517;28;20925;-76
2022/01/12 04:30:55;;;;;;;12.30;6.10;;;1.50;95.20;;;;;;5053008;28;20393;-76
2022/01/12 04:33:21;;;;;;;11.47;6.63;;;1.50;95.10;;;;;;5034400;28;20755;-76
2022/01/12 04:35:53;;;;;;;11.47;5.90;;;1.50;95.10;;;;;;5019126;28;21190;-75
2022/01/12 04:38:21;;;;;;;7.50;4.90;;;1.60;95.10;;;;;;5019041;28;20400;-76
2022/01/12 04:40:47;;;;;;;8.33;5.97;;;1.60;94.90;;;;;;5034309;28;20516;-75
2022/01/12 04:43:15;;;;;;;10.47;6.03;;;1.70;94.80;;;;;;5050076;28;20971;-77
2022/01/12 04:46:08;;;;;;;10.53;5.97;;;1.60;94.60;;;;;;5034287;28;20504;-76
2022/01/12 04:51:10;;;;;;;9.37;6.50;;;1.60;94.60;;;;;;5034086;28;20901;-75
2022/01/12 04:53:36;;;;;;;12.53;7.30;;;1.60;94.60;;;;;;5051914;28;20412;-76
2022/01/12 04:56:03;;;;;;;13.43;7.07;;;1.60;94.50;;;;;;5051863;28;20424;-74
2022/01/12 04:58:30;;;;;;;11.53;6.47;;;1.70;94.60;;;;;;5034624;28;20424;-76
2022/01/12 05:01:04;;;;;;;10.30;6.00;;;1.70;94.60;;;;;;5033760;28;20478;-76
2022/01/12 05:09:09;;;;;;;10.23;6.57;;;1.70;94.50;;;;;;5033956;28;20412;-75
2022/01/12 05:14:24;;;;;;;11.47;6.10;;;1.80;94.60;;;;;;5050638;28;20434;-75
2022/01/12 05:16:51;;;;;;;14.27;7.00;;;1.80;94.40;;;;;;5033484;28;20428;-74
2022/01/12 05:19:17;;;;;;;10.43;5.40;;;1.90;94.40;;;;;;5033739;28;20424;-74
2022/01/12 05:21:43;;;;;;;9.67;5.93;;;1.90;94.30;;;;;;5033966;28;20501;-74
2022/01/12 05:24:10;;;;;;;9.70;6.10;;;1.90;94.30;;;;;;5033950;28;20555;-75
2022/01/12 05:26:37;;;;;;;8.00;6.00;;;1.90;94.20;;;;;;5049709;28;20671;-76
2022/01/12 05:29:03;;;;;;;13.47;7.80;;;1.90;94.30;;;;;;5034295;28;20420;-77
2022/01/12 05:31:29;;;;;;;11.60;6.93;;;1.90;94.20;;;;;;5033768;28;20463;-76
2022/01/12 05:33:59;;;;;;;11.20;6.40;;;1.90;94.00;;;;;;5033272;28;20929;-75
2022/01/12 05:36:25;;;;;;;12.57;6.93;;;1.90;94.10;;;;;;5032624;28;20444;-75
2022/01/12 05:38:53;;;;;;;11.10;6.70;;;1.90;94.00;;;;;;5033257;28;20425;-75
2022/01/12 05:41:19;;;;;;;22.47;7.60;;;1.90;94.10;;;;;;5033343;28;20810;-76
2022/01/12 05:43:46;;;;;;;11.70;6.97;;;2.00;93.90;;;;;;5033354;28;20212;-74
2022/01/12 05:46:13;;;;;;;11.70;6.23;;;2.00;93.90;;;;;;5033282;28;20425;-76
2022/01/12 05:51:33;;;;;;;12.30;7.50;;;2.00;94.00;;;;;;5052079;28;20503;-76
2022/01/12 05:53:59;;;;;;;14.10;7.43;;;2.00;94.00;;;;;;5037955;28;20458;-76
2022/01/12 05:56:26;;;;;;;12.90;7.53;;;2.00;93.90;;;;;;5027623;28;20447;-76
2022/01/12 05:58:52;;;;;;;13.77;6.90;;;2.00;93.50;;;;;;5054964;28;20404;-76
2022/01/12 06:01:19;;;;;;;9.87;6.87;;;2.00;93.70;;;;;;5036765;28;20807;-76
2022/01/12 06:03:47;;;;;;;13.87;7.77;;;2.00;93.90;;;;;;5037402;28;20467;-76
2022/01/12 06:06:13;;;;;;;13.93;8.10;;;2.00;94.00;;;;;;5037121;28;20428;-75
2022/01/12 06:08:39;;;;;;;9.30;7.20;;;2.00;93.90;;;;;;5053782;28;20511;-76
2022/01/12 06:11:06;;;;;;;12.60;6.93;;;2.00;93.90;;;;;;5037120;28;20866;-76
2022/01/12 06:13:32;;;;;;;10.83;6.53;;;2.00;93.90;;;;;;5036039;28;20204;-76
2022/01/12 06:15:58;;;;;;;14.27;6.70;;;2.00;93.90;;;;;;5029109;28;20448;-76
2022/01/12 06:18:25;;;;;;;11.63;6.67;;;2.00;94.10;;;;;;5032450;28;20428;-76
2022/01/12 06:20:51;;;;;;;13.47;6.70;;;1.90;94.10;;;;;;5045267;28;20428;-75
2022/01/12 06:23:50;;;;;;;12.67;7.00;;;2.00;94.20;;;;;;5037723;28;20752;-76
2022/01/12 06:26:16;;;;;;;12.23;7.20;;;2.00;94.20;;;;;;5044869;28;20518;-77
2022/01/12 06:28:53;;;;;;;13.30;7.80;;;2.00;94.20;;;;;;5037395;28;20421;-76
2022/01/12 06:31:26;;;;;;;14.70;7.37;;;2.00;94.20;;;;;;5057649;28;20423;-75
2022/01/12 06:33:51;;;;;;;10.90;6.97;;;2.00;94.20;;;;;;5041505;28;20424;-74
2022/01/12 06:36:21;;;;;;;15.07;7.23;;;2.00;94.10;;;;;;5053973;28;20474;-76
2022/01/12 06:38:48;;;;;;;12.37;6.93;;;2.00;94.20;;;;;;5038524;28;20208;-73
2022/01/12 06:41:15;;;;;;;13.13;7.43;;;2.10;94.10;;;;;;5035599;28;20796;-74
2022/01/12 06:43:42;;;;;;;14.57;6.50;;;2.10;93.70;;;;;;5036320;28;20452;-73
2022/01/12 06:46:09;;;;;;;11.20;6.97;;;2.00;93.70;;;;;;5017727;28;20519;-73
2022/01/12 06:48:36;;;;;;;11.47;7.03;;;1.90;93.70;;;;;;5035691;28;20532;-73
2022/01/12 06:51:03;;;;;;;12.50;7.20;;;1.80;93.80;;;;;;5035870;28;20848;-73
2022/01/12 06:53:30;;;;;;;13.33;7.43;;;1.80;94.00;;;;;;5036388;28;20774;-75
2022/01/12 06:55:55;;;;;;;17.13;7.90;;;1.80;94.10;;;;;;5033452;28;20454;-74
2022/01/12 06:58:21;;;;;;;12.90;7.60;;;1.70;94.20;;;;;;5021274;28;20432;-75
2022/01/12 07:00:48;;;;;;;10.27;5.90;;;1.70;94.40;;;;;;5040640;28;20838;-75
2022/01/12 07:03:15;;;;;;;12.90;7.43;;;1.70;94.50;;;;;;5039140;28;20451;-74
2022/01/12 07:05:52;;;;;;;15.60;7.53;;;1.60;94.70;;;;;;5034287;28;20964;-74
2022/01/12 07:08:18;;;;;;;13.90;7.67;;;1.60;94.80;;;;;;5041593;28;20424;-74
2022/01/12 07:10:45;;;;;;;14.53;7.50;;;1.60;94.90;;;;;;5046820;28;20535;-74
2022/01/12 07:13:16;;;;;;;14.70;7.70;;;1.70;95.00;;;;;;5032819;28;20428;-72
2022/01/12 07:15:43;;;;;;;11.80;7.80;;;1.70;95.10;;;;;;5035364;28;20432;-72
2022/01/12 07:18:11;;;;;;;12.67;7.67;;;1.70;95.10;;;;;;5053746;28;20166;-74
2022/01/12 07:20:37;;;;;;;13.63;7.37;;;1.80;95.10;;;;;;5055186;28;20765;-75
2022/01/12 07:23:04;;;;;;;14.40;7.70;;;1.80;95.00;;;;;;5056262;28;20459;-73
2022/01/12 07:25:30;;;;;;;11.33;7.73;;;1.90;94.90;;;;;;5054136;28;20820;-72
2022/01/12 07:27:56;;;;;;;11.83;6.90;;;1.90;94.90;;;;;;5062964;28;20423;-74
2022/01/12 07:30:24;;;;;;;20.20;7.40;;;2.00;94.90;;;;;;5076908;28;20240;-72
2022/01/12 07:32:50;;;;;;;10.90;7.37;;;2.00;94.80;;;;;;5056427;28;20251;-73
2022/01/12 07:35:16;;;;;;;13.17;9.00;;;2.00;94.80;;;;;;5053845;28;20429;-74
2022/01/12 07:37:41;;;;;;;31.30;16.00;;;2.10;94.70;;;;;;5034569;28;20470;-75
2022/01/12 07:40:08;;;;;;;23.90;12.00;;;2.10;94.60;;;;;;5046026;28;20959;-74
2022/01/12 07:42:34;;;;;;;13.37;7.00;;;2.20;94.90;;;;;;5062990;28;20185;-72
2022/01/12 07:45:09;;;;;;;22.00;7.40;;;2.20;94.20;;;;;;5014668;28;20448;-74
2022/01/12 07:47:34;;;;;;;13.53;6.97;;;2.20;94.00;;;;;;5060504;28;20458;-73
2022/01/12 07:50:03;;;;;;;26.23;8.53;;;2.20;94.00;;;;;;5065631;28;20862;-74
2022/01/12 07:52:30;;;;;;;11.53;7.30;;;2.20;94.10;;;;;;5041887;28;20178;-73
2022/01/12 07:54:57;;;;;;;12.63;7.20;;;2.30;94.20;;;;;;5033631;28;20428;-73
2022/01/12 07:57:22;;;;;;;23.10;7.57;;;2.30;94.00;;;;;;5043227;28;20548;-73
2022/01/12 07:59:51;;;;;;;13.93;8.13;;;2.30;93.80;;;;;;5029226;28;20952;-72
2022/01/12 08:02:17;;;;;;;17.07;8.70;;;2.40;93.90;;;;;;5036208;28;20428;-71
2022/01/12 08:04:43;;;;;;;15.80;8.60;;;2.50;93.80;;;;;;5045690;28;20466;-73
2022/01/12 08:07:10;;;;;;;18.40;8.60;;;2.50;93.70;;;;;;5057861;28;20479;-71
2022/01/12 08:09:37;;;;;;;13.07;7.13;;;2.50;93.50;;;;;;5016185;28;20577;-72
2022/01/12 08:12:03;;;;;;;16.40;10.90;;;2.60;93.60;;;;;;5046391;28;20486;-72
2022/01/12 08:14:29;;;;;;;22.70;9.80;;;2.60;93.80;;;;;;5044790;28;20435;-74
2022/01/12 08:16:55;;;;;;;13.93;7.97;;;2.70;93.10;;;;;;5055483;28;20447;-72
2022/01/12 08:19:22;;;;;;;11.30;7.23;;;2.70;93.10;;;;;;5048413;28;20181;-74
2022/01/12 08:21:48;;;;;;;13.30;7.83;;;2.70;92.90;;;;;;5032703;28;20185;-74
2022/01/12 08:24:14;;;;;;;18.27;7.83;;;2.70;92.70;;;;;;5043263;28;21178;-76
2022/01/12 08:26:40;;;;;;;9.60;7.37;;;2.70;92.70;;;;;;5050240;28;20272;-74
2022/01/12 08:29:09;;;;;;;13.57;7.10;;;2.70;92.70;;;;;;5020083;28;20428;-73
2022/01/12 08:31:35;;;;;;;16.70;8.57;;;2.70;92.50;;;;;;5039855;28;20420;-71
2022/01/12 08:34:01;;;;;;;15.90;7.57;;;2.70;92.20;;;;;;5027133;28;20929;-73
2022/01/12 08:36:27;;;;;;;17.23;8.23;;;2.60;92.30;;;;;;5048144;28;20494;-73
2022/01/12 08:38:52;;;;;;;11.63;7.10;;;2.60;92.40;;;;;;5050890;28;20231;-75
2022/01/12 08:41:18;;;;;;;18.60;9.27;;;2.70;92.80;;;;;;5033040;28;20186;-74
2022/01/12 08:43:44;;;;;;;17.10;7.90;;;2.70;92.80;;;;;;5048120;28;20197;-74
2022/01/12 08:46:10;;;;;;;13.83;7.40;;;2.70;92.70;;;;;;5050259;28;20201;-73
2022/01/12 08:48:36;;;;;;;13.67;7.70;;;2.80;92.60;;;;;;5050054;28;20177;-73
2022/01/12 08:51:04;;;;;;;13.37;7.43;;;2.80;92.30;;;;;;5034415;28;20177;-73
2022/01/12 08:53:30;;;;;;;18.23;9.23;;;2.70;92.30;;;;;;5059359;28;20922;-71
2022/01/12 08:55:55;;;;;;;27.17;8.50;;;2.70;92.50;;;;;;5034376;28;20268;-73
2022/01/12 08:58:21;;;;;;;12.77;8.87;;;2.70;92.60;;;;;;5051043;28;20650;-73
2022/01/12 09:00:47;;;;;;;14.97;9.60;;;2.80;92.40;;;;;;5045874;23;20302;-76
2022/01/12 09:03:13;;;;;;;16.23;8.70;;;2.80;92.30;;;;;;5027704;28;20457;-77
2022/01/12 09:05:42;;;;;;;18.87;8.83;;;2.90;92.40;;;;;;5016964;28;20244;-77
2022/01/12 09:08:08;;;;;;;12.77;8.40;;;2.90;92.20;;;;;;5016565;28;20175;-76
2022/01/12 09:10:34;;;;;;;14.10;8.37;;;3.00;92.10;;;;;;5021047;28;20488;-76
2022/01/12 09:13:02;;;;;;;14.67;7.27;;;3.00;92.30;;;;;;5014163;28;20182;-76
2022/01/12 09:15:28;;;;;;;10.30;7.07;;;3.10;92.00;;;;;;5010568;28;20414;-76
2022/01/12 09:17:56;;;;;;;18.43;8.67;;;3.20;92.10;;;;;;5010622;28;20417;-76
2022/01/12 09:20:23;;;;;;;11.80;7.43;;;3.30;92.10;;;;;;5009019;28;20214;-77
2022/01/12 09:22:50;;;;;;;18.37;9.17;;;3.30;91.90;;;;;;5005696;28;20423;-77
2022/01/12 09:25:16;;;;;;;16.80;8.60;;;3.40;91.90;;;;;;5005506;28;20447;-76
2022/01/12 09:27:42;;;;;;;12.10;7.37;;;3.50;91.60;;;;;;4999441;28;20417;-76
2022/01/12 09:30:10;;;;;;;19.83;7.50;;;3.60;91.70;;;;;;4979234;28;20469;-75
2022/01/12 09:32:36;;;;;;;16.70;8.07;;;3.70;91.30;;;;;;4997189;28;20194;-76
2022/01/12 09:35:03;;;;;;;12.30;7.57;;;3.80;91.10;;;;;;4995008;28;20429;-77
2022/01/12 09:37:28;;;;;;;16.93;8.97;;;3.80;90.90;;;;;;4994106;28;20437;-76
2022/01/12 09:39:54;;;;;;;16.23;8.10;;;3.90;90.80;;;;;;5007444;28;20957;-76
2022/01/12 09:42:20;;;;;;;20.67;10.37;;;3.90;90.70;;;;;;5003450;28;20526;-76
2022/01/12 09:44:47;;;;;;;12.77;9.00;;;3.90;90.60;;;;;;5002832;28;20298;-76
2022/01/12 09:47:15;;;;;;;15.70;8.77;;;3.90;90.60;;;;;;5005405;28;20561;-78
2022/01/12 09:49:46;;;;;;;15.07;8.67;;;3.90;90.50;;;;;;4982067;28;20453;-78
2022/01/12 09:52:13;;;;;;;13.67;7.63;;;4.00;90.60;;;;;;5003434;28;20426;-76
2022/01/12 09:54:39;;;;;;;12.27;7.63;;;4.00;90.50;;;;;;4990392;28;20490;-77
2022/01/12 09:57:06;;;;;;;15.43;8.57;;;4.00;90.60;;;;;;4996024;28;20501;-76
2022/01/12 09:59:32;;;;;;;12.90;7.43;;;4.00;90.50;;;;;;5008844;28;20963;-76
2022/01/12 10:02:00;;;;;;;12.80;8.03;;;4.00;90.60;;;;;;4993860;28;20916;-76
2022/01/12 10:04:29;;;;;;;15.43;7.77;;;4.10;90.40;;;;;;4999149;28;20504;-76
2022/01/12 10:07:03;;;;;;;15.40;8.80;;;4.10;89.70;;;;;;4997186;28;20199;-77
2022/01/12 10:09:48;;;;;;;13.60;8.60;;;4.00;90.30;;;;;;5007533;28;20441;-77
2022/01/12 10:12:16;;;;;;;15.60;8.20;;;4.00;90.10;;;;;;4992102;28;20422;-76
2022/01/12 10:14:55;;;;;;;18.93;9.57;;;4.00;90.40;;;;;;4986046;28;20511;-77
2022/01/12 10:17:41;;;;;;;15.13;9.00;;;4.00;90.40;;;;;;4992793;28;20405;-76
2022/01/12 10:20:21;;;;;;;17.87;9.30;;;4.00;90.50;;;;;;5009254;28;20457;-76
2022/01/12 10:23:02;;;;;;;15.73;9.60;;;4.10;90.40;;;;;;4972659;28;20939;-77
2022/01/12 10:25:30;;;;;;;14.80;7.73;;;4.20;90.30;;;;;;4999540;28;20426;-77
2022/01/12 10:27:59;;;;;;;14.87;8.33;;;4.20;90.20;;;;;;4991589;28;20476;-77
2022/01/12 10:30:28;;;;;;;13.20;7.90;;;4.20;89.00;;;;;;5008354;28;20521;-78
2022/01/12 10:33:00;;;;;;;19.57;10.93;;;4.20;89.40;;;;;;4981690;28;20422;-76
2022/01/12 10:35:30;;;;;;;17.50;8.57;;;4.30;89.60;;;;;;4980300;28;20434;-77
2022/01/12 10:38:09;;;;;;;19.00;8.80;;;4.30;89.40;;;;;;5012197;28;20449;-76
2022/01/12 10:40:47;;;;;;;16.17;8.37;;;4.40;89.90;;;;;;5009114;28;20968;-77
2022/01/12 10:43:26;;;;;;;15.07;8.50;;;4.40;90.10;;;;;;5013234;28;20535;-78
2022/01/12 10:45:51;;;;;;;19.53;9.10;;;4.40;90.00;;;;;;5006885;28;21214;-76
2022/01/12 10:48:17;;;;;;;13.97;7.33;;;4.40;90.00;;;;;;5008601;28;20417;-77
2022/01/12 10:50:57;;;;;;;14.60;8.80;;;4.40;90.10;;;;;;5013102;28;20199;-77
2022/01/12 10:53:33;;;;;;;16.60;9.03;;;4.40;90.10;;;;;;5005526;28;20287;-77
2022/01/12 10:56:08;;;;;;;17.47;8.90;;;4.40;90.30;;;;;;4996064;28;20420;-77
2022/01/12 10:58:37;;;;;;;21.97;10.97;;;4.50;90.70;;;;;;5012876;28;20811;-76
2022/01/12 11:01:03;;;;;;;19.70;10.03;;;4.50;91.00;;;;;;4998663;28;20504;-77
2022/01/12 11:03:30;;;;;;;24.20;9.20;;;4.50;90.80;;;;;;4997322;28;20493;-76
2022/01/12 11:05:56;;;;;;;16.20;9.07;;;4.50;91.10;;;;;;5005523;28;20197;-76
2022/01/12 11:08:24;;;;;;;60.30;31.97;;;4.60;91.30;;;;;;5004448;28;20434;-78
2022/01/12 11:10:54;;;;;;;20.97;10.30;;;4.50;91.40;;;;;;5016513;28;20476;-76
2022/01/12 11:13:21;;;;;;;23.07;10.70;;;4.50;91.90;;;;;;5012532;28;20426;-76
2022/01/12 11:15:48;;;;;;;18.97;9.90;;;4.60;92.10;;;;;;4995382;28;20465;-76
2022/01/12 11:18:16;;;;;;;19.43;10.47;;;4.60;92.10;;;;;;4995337;28;20418;-76
2022/01/12 11:20:47;;;;;;;23.27;9.17;;;4.60;92.10;;;;;;5053543;23;20487;-76
2022/01/12 11:23:15;;;;;;;18.80;9.50;;;4.60;92.10;;;;;;5068772;28;20637;-75
2022/01/12 11:25:44;;;;;;;26.73;9.20;;;4.50;92.10;;;;;;5045253;28;20432;-76
2022/01/12 11:28:17;;;;;;;31.27;11.57;;;4.50;92.30;;;;;;5041593;28;20490;-75
2022/01/12 11:30:51;;;;;;;25.47;10.30;;;4.50;92.60;;;;;;5055470;28;20491;-76
2022/01/12 11:33:40;;;;;;;20.00;9.93;;;4.50;92.80;;;;;;5051926;28;20431;-77
2022/01/12 11:36:27;;;;;;;28.47;9.80;;;4.40;93.00;;;;;;5050116;28;20420;-76
2022/01/12 11:39:00;;;;;;;32.83;12.00;;;4.40;93.50;;;;;;5032217;28;20460;-77
2022/01/12 11:41:34;;;;;;;28.50;10.87;;;4.50;93.50;;;;;;5061902;28;20952;-77
2022/01/12 11:44:22;;;;;;;21.63;10.93;;;4.50;93.70;;;;;;5051646;28;20468;-75
2022/01/12 11:46:48;;;;;;;27.90;12.37;;;4.50;94.00;;;;;;5028243;28;21003;-76
2022/01/12 11:49:31;;;;;;;25.80;13.27;;;4.50;94.00;;;;;;5049610;28;20448;-76
2022/01/12 11:51:59;;;;;;;28.83;12.80;;;4.50;93.90;;;;;;5050544;28;20178;-77
2022/01/12 11:54:36;;;;;;;30.07;13.37;;;4.50;94.10;;;;;;5043959;28;20453;-76
2022/01/12 11:57:04;;;;;;;30.73;15.33;;;4.50;94.80;;;;;;5059408;28;20526;-76
2022/01/12 11:59:47;;;;;;;33.97;15.07;;;4.60;94.80;;;;;;5049291;28;20440;-76
2022/01/12 12:02:17;;;;;;;32.03;13.53;;;4.70;95.20;;;;;;5042640;28;20424;-75
2022/01/12 12:04:56;;;;;;;38.83;13.90;;;4.80;94.70;;;;;;5048041;28;20498;-76
2022/01/12 12:07:23;;;;;;;31.20;14.27;;;5.00;94.60;;;;;;5050880;28;20455;-76
2022/01/12 12:09:57;;;;;;;28.00;14.60;;;5.10;93.70;;;;;;5050450;28;20967;-76
2022/01/12 12:12:24;;;;;;;29.47;15.47;;;5.20;94.10;;;;;;5044317;28;20751;-76
2022/01/12 12:14:55;;;;;;;35.60;15.10;;;5.30;93.70;;;;;;5036019;28;20507;-76
2022/01/12 12:17:23;;;;;;;26.10;13.20;;;5.40;94.30;;;;;;5049376;28;20463;-77
2022/01/12 12:19:49;;;;;;;29.70;13.63;;;5.60;94.20;;;;;;5045245;28;21193;-76
2022/01/12 12:22:15;;;;;;;28.10;12.43;;;5.60;92.50;;;;;;5049283;28;20432;-77
2022/01/12 12:24:42;;;;;;;28.87;13.90;;;5.60;92.10;;;;;;5037340;28;20468;-76
2022/01/12 12:27:10;;;;;;;33.33;13.37;;;5.40;92.70;;;;;;5051998;28;20207;-76
2022/01/12 12:29:37;;;;;;;37.27;14.73;;;5.40;93.50;;;;;;5032116;28;20432;-77
2022/01/12 12:32:05;;;;;;;39.33;13.27;;;5.40;94.00;;;;;;5050926;28;20431;-77
2022/01/12 12:34:33;;;;;;;35.00;14.80;;;5.40;93.90;;;;;;5050840;28;20432;-76
2022/01/12 12:37:08;;;;;;;44.80;13.90;;;5.30;93.50;;;;;;5049961;28;20424;-77
2022/01/12 12:39:37;;;;;;;38.77;14.70;;;5.40;95.50;;;;;;5043055;28;20870;-76
2022/01/12 12:42:04;;;;;;;44.93;15.53;;;5.50;95.00;;;;;;5045910;28;20446;-76
2022/01/12 12:44:32;;;;;;;39.10;15.83;;;5.60;93.50;;;;;;5050080;28;20547;-77
2022/01/12 12:47:13;;;;;;;34.43;15.60;;;5.50;93.20;;;;;;5046348;28;20516;-75
2022/01/12 12:49:57;;;;;;;35.20;15.23;;;5.40;93.60;;;;;;5050778;28;20444;-77
2022/01/12 12:52:28;;;;;;;42.67;17.50;;;5.20;93.90;;;;;;5041558;28;20871;-76
2022/01/12 12:54:55;;;;;;;35.97;14.70;;;5.10;94.20;;;;;;5050799;28;20432;-75
2022/01/12 12:57:21;;;;;;;30.97;13.33;;;4.90;94.80;;;;;;5049490;28;20428;-76
2022/01/12 13:00:02;;;;;;;35.90;13.03;;;4.90;95.10;;;;;;5049867;28;20934;-76
2022/01/12 13:02:35;;;;;;;43.93;17.17;;;4.80;95.50;;;;;;5031419;28;20201;-76
2022/01/12 13:05:10;;;;;;;43.03;16.97;;;4.80;95.70;;;;;;5040812;28;20820;-77
2022/01/12 13:07:41;;;;;;;42.50;15.57;;;4.80;95.80;;;;;;5032429;28;20960;-75
2022/01/12 13:10:13;;;;;;;42.40;14.90;;;4.80;95.90;;;;;;5050128;28;20447;-76
2022/01/12 13:12:40;;;;;;;35.63;14.57;;;4.70;96.00;;;;;;5045579;28;20464;-77
2022/01/12 13:15:13;;;;;;;37.60;16.80;;;4.70;95.90;;;;;;5049668;28;20427;-77
2022/01/12 13:17:40;;;;;;;57.07;22.20;;;4.70;96.00;;;;;;5049648;28;21056;-76
2022/01/12 13:22:44;;;;;;;48.37;16.70;;;4.70;96.20;;;;;;5050367;28;20862;-75
2022/01/12 13:25:14;;;;;;;35.03;16.20;;;4.70;96.20;;;;;;5032477;28;20423;-76
2022/01/12 13:27:40;;;;;;;51.33;18.00;;;4.60;96.20;;;;;;5034087;28;20785;-76
2022/01/12 13:30:08;;;;;;;43.17;17.50;;;4.60;96.30;;;;;;5032656;28;20452;-76
2022/01/12 13:32:37;;;;;;;45.20;16.17;;;4.60;96.20;;;;;;5049218;28;20444;-76
2022/01/12 13:35:09;;;;;;;48.57;16.87;;;4.60;96.30;;;;;;5050242;28;20416;-77
2022/01/12 13:37:36;;;;;;;42.67;18.00;;;4.50;96.30;;;;;;5032035;28;20411;-76
2022/01/12 13:40:11;;;;;;;49.90;17.27;;;4.50;96.40;;;;;;5012964;28;20448;-76
2022/01/12 13:42:53;;;;;;;43.70;19.20;;;4.50;96.60;;;;;;5026396;28;20427;-76
2022/01/12 13:45:26;;;;;;;55.57;20.97;;;4.40;96.60;;;;;;5051591;28;20530;-76
2022/01/12 13:48:01;;;;;;;56.03;21.20;;;4.50;96.80;;;;;;5026775;28;20424;-76
2022/01/12 13:50:31;;;;;;;47.80;17.90;;;4.40;96.70;;;;;;5046783;28;20550;-76
2022/01/12 13:52:57;;;;;;;62.80;20.43;;;4.40;96.80;;;;;;5026575;28;20420;-76
2022/01/12 13:55:23;;;;;;;59.47;21.47;;;4.40;97.00;;;;;;5032415;28;20435;-76
2022/01/12 13:58:05;;;;;;;51.10;19.00;;;4.40;97.00;;;;;;5049786;28;20504;-75
2022/01/12 14:00:34;;;;;;;56.83;22.23;;;4.40;97.20;;;;;;5025001;28;20448;-76
2022/01/12 14:03:00;;;;;;;63.60;21.20;;;4.50;97.20;;;;;;5032015;28;20456;-75
2022/01/12 14:05:39;;;;;;;70.43;24.27;;;4.50;97.40;;;;;;5032527;28;20420;-76
2022/01/12 14:08:13;;;;;;;66.17;25.50;;;4.50;97.40;;;;;;5048481;28;20435;-76
2022/01/12 14:10:52;;;;;;;78.37;28.87;;;4.50;97.50;;;;;;5024491;28;20447;-75
2022/01/12 14:13:26;;;;;;;51.60;21.67;;;4.50;97.50;;;;;;5053690;28;20557;-76
2022/01/12 14:15:51;;;;;;;65.57;25.53;;;4.50;97.50;;;;;;5052562;28;20473;-75
2022/01/12 14:18:18;;;;;;;100.33;32.57;;;4.50;97.50;;;;;;5053819;28;21000;-76